Time;durP1;ratioP1;P1;durP2;ratioP2;P2;SDS_P1;SDS_P2;PMS_P1;PMS_P2;Temp;Humidity;BMP_temperature;BMP_pressure;BME280_temperature;BME280_humidity;BME280_pressure;Samples;Min_cycle;Max_cycle;Signal;HPM_P1;HPM_P2
2022/08/09 00:01:19;;;;;;;6.00;2.60;;;;;;;;;;110926;1250;33731;-40
2022/08/09 00:03:50;;;;;;;5.60;2.70;;;;;;;;;;110943;1250;35615;-41
2022/08/09 00:06:21;;;;;;;4.60;2.60;;;;;;;;;;110936;1241;34998;-41
2022/08/09 00:08:52;;;;;;;5.00;2.70;;;;;;;;;;110934;1250;35438;-41
2022/08/09 00:11:23;;;;;;;4.50;2.40;;;;;;;;;;110955;1249;33776;-41
2022/08/09 00:13:59;;;;;;;6.10;3.20;;;;;;;;;;110892;1250;35012;-39
2022/08/09 00:16:30;;;;;;;5.30;2.90;;;;;;;;;;110955;1241;35494;-41
2022/08/09 00:19:00;;;;;;;4.80;2.70;;;;;;;;;;110933;1250;34257;-43
2022/08/09 00:21:31;;;;;;;5.20;2.80;;;;;;;;;;110943;1247;33447;-40
2022/08/09 00:24:05;;;;;;;5.80;3.00;;;;;;;;;;110950;1250;33417;-40
2022/08/09 00:26:37;;;;;;;5.70;3.10;;;;;;;;;;110966;1250;34873;-43
2022/08/09 00:29:09;;;;;;;5.20;2.90;;;;;;;;;;110946;1241;33881;-39
2022/08/09 00:31:40;;;;;;;6.10;2.90;;;;;;;;;;110985;1241;35413;-40
2022/08/09 00:34:12;;;;;;;5.00;2.80;;;;;;;;;;110943;1242;33733;-43
2022/08/09 00:36:46;;;;;;;5.30;3.10;;;;;;;;;;110942;1249;34949;-40
2022/08/09 00:39:17;;;;;;;5.90;3.10;;;;;;;;;;110912;1250;35126;-41
2022/08/09 00:41:48;;;;;;;4.90;3.20;;;;;;;;;;110977;1241;33735;-41
2022/08/09 00:44:20;;;;;;;7.50;3.00;;;;;;;;;;110942;1250;34191;-41
2022/08/09 00:46:51;;;;;;;6.30;3.50;;;;;;;;;;110946;1248;34578;-42
2022/08/09 00:49:23;;;;;;;8.00;3.40;;;;;;;;;;110929;1250;34963;-41
2022/08/09 00:51:55;;;;;;;6.70;2.90;;;;;;;;;;110919;1251;35035;-42
2022/08/09 00:54:26;;;;;;;5.40;3.20;;;;;;;;;;110948;1241;33666;-42
2022/08/09 00:57:00;;;;;;;6.80;3.20;;;;;;;;;;110910;1248;34251;-40
2022/08/09 00:59:31;;;;;;;5.50;3.00;;;;;;;;;;110927;1242;35082;-41
2022/08/09 01:02:02;;;;;;;5.40;3.40;;;;;;;;;;110927;1250;35062;-44
2022/08/09 01:04:38;;;;;;;5.60;3.10;;;;;;;;;;110901;1251;35060;-42
2022/08/09 01:07:16;;;;;;;5.90;3.30;;;;;;;;;;110913;1244;34403;-42
2022/08/09 01:09:55;;;;;;;6.30;3.40;;;;;;;;;;110913;1250;35355;-42
2022/08/09 01:12:32;;;;;;;6.30;3.30;;;;;;;;;;110929;1251;33720;-42
2022/08/09 01:15:05;;;;;;;5.70;3.50;;;;;;;;;;110954;1250;35049;-42
2022/08/09 01:17:36;;;;;;;;;;;;;;;;;;110963;1249;35037;-42
2022/08/09 01:20:10;;;;;;;6.30;3.00;;;;;;;;;;110880;1249;34387;-42
2022/08/09 01:23:16;;;;;;;5.80;3.50;;;;;;;;;;110923;1240;35478;-41
2022/08/09 01:25:59;;;;;;;5.60;3.40;;;;;;;;;;110929;1247;33746;-42
2022/08/09 01:28:28;;;;;;;;;;;;;;;;;;110965;1249;34259;-43
2022/08/09 01:31:02;;;;;;;6.70;3.30;;;;;;;;;;110601;1250;433574;-41
2022/08/09 01:33:37;;;;;;;5.50;3.40;;;;;;;;;;110953;1250;33299;-41
2022/08/09 01:36:12;;;;;;;6.30;3.70;;;;;;;;;;110921;1244;34259;-42
2022/08/09 01:38:45;;;;;;;6.20;3.20;;;;;;;;;;110952;1241;34989;-42
2022/08/09 01:41:22;;;;;;;7.50;3.80;;;;;;;;;;110945;1241;33906;-42
2022/08/09 01:43:54;;;;;;;6.00;3.40;;;;;;;;;;110896;1250;34957;-43
2022/08/09 01:46:27;;;;;;;6.70;3.80;;;;;;;;;;110950;1241;33208;-42
2022/08/09 01:48:59;;;;;;;6.70;3.80;;;;;;;;;;110929;1240;33718;-42
2022/08/09 01:51:32;;;;;;;6.80;3.40;;;;;;;;;;110946;1247;35129;-42
2022/08/09 01:54:05;;;;;;;8.40;3.90;;;;;;;;;;110974;1249;34276;-42
2022/08/09 01:56:38;;;;;;;7.40;3.70;;;;;;;;;;110945;1241;34976;-42
2022/08/09 01:59:12;;;;;;;7.00;3.50;;;;;;;;;;110973;1241;35491;-45
2022/08/09 02:01:44;;;;;;;6.20;3.50;;;;;;;;;;110947;1241;34973;-43
2022/08/09 02:04:15;;;;;;;5.30;3.20;;;;;;;;;;110902;1250;34508;-44
2022/08/09 02:09:37;;;;;;;6.90;3.30;;;;;;;;;;110920;1249;35130;-42
2022/08/09 02:12:09;;;;;;;5.50;3.70;;;;;;;;;;110915;1243;35511;-43
2022/08/09 02:14:42;;;;;;;7.00;3.50;;;;;;;;;;110956;1243;33797;-44
2022/08/09 02:17:14;;;;;;;7.60;3.40;;;;;;;;;;110952;1241;34397;-44
2022/08/09 02:19:45;;;;;;;5.60;3.30;;;;;;;;;;110918;1250;35425;-42
2022/08/09 02:22:23;;;;;;;5.90;3.30;;;;;;;;;;110931;1250;33266;-43
2022/08/09 02:24:56;;;;;;;7.40;3.80;;;;;;;;;;110955;1250;35040;-42
2022/08/09 02:27:29;;;;;;;7.00;3.40;;;;;;;;;;110923;1249;34979;-42
2022/08/09 02:30:03;;;;;;;6.40;3.40;;;;;;;;;;110960;1241;35079;-46
2022/08/09 02:32:39;;;;;;;6.00;3.40;;;;;;;;;;110924;1249;35391;-42
2022/08/09 02:35:13;;;;;;;7.00;3.50;;;;;;;;;;110937;1250;34871;-41
2022/08/09 02:37:45;;;;;;;5.10;3.10;;;;;;;;;;110992;1249;33755;-42
2022/08/09 02:40:18;;;;;;;7.70;4.10;;;;;;;;;;110907;1241;34316;-42
2022/08/09 02:42:50;;;;;;;5.60;2.90;;;;;;;;;;110939;1249;34570;-43
2022/08/09 02:45:27;;;;;;;6.10;3.40;;;;;;;;;;110928;1247;35301;-42
2022/08/09 02:48:06;;;;;;;5.20;3.20;;;;;;;;;;110885;1249;35469;-42
2022/08/09 02:50:40;;;;;;;5.50;3.30;;;;;;;;;;110915;1241;35560;-42
2022/08/09 02:53:16;;;;;;;6.80;3.20;;;;;;;;;;110935;1241;34954;-44
2022/08/09 02:55:53;;;;;;;7.20;3.20;;;;;;;;;;110920;1250;33875;-44
2022/08/09 02:58:32;;;;;;;6.60;3.50;;;;;;;;;;110942;1249;34998;-42
2022/08/09 03:01:03;;;;;;;5.50;3.30;;;;;;;;;;110948;1241;33762;-43
2022/08/09 03:03:35;;;;;;;6.00;3.40;;;;;;;;;;110937;1242;35145;-42
2022/08/09 03:06:13;;;;;;;6.50;3.30;;;;;;;;;;110885;1242;35095;-43
2022/08/09 03:08:48;;;;;;;5.70;3.10;;;;;;;;;;110921;1245;33285;-42
2022/08/09 03:11:21;;;;;;;6.40;3.50;;;;;;;;;;110939;1250;35036;-42
2022/08/09 03:13:52;;;;;;;5.80;3.40;;;;;;;;;;110909;1250;33638;-45
2022/08/09 03:16:25;;;;;;;6.90;3.50;;;;;;;;;;110934;1244;35467;-43
2022/08/09 03:19:02;;;;;;;6.90;3.50;;;;;;;;;;110937;1249;33262;-43
2022/08/09 03:21:35;;;;;;;5.30;2.90;;;;;;;;;;110920;1247;33929;-42
2022/08/09 03:24:06;;;;;;;6.80;3.40;;;;;;;;;;110920;1242;35205;-44
2022/08/09 03:26:37;;;;;;;4.90;3.20;;;;;;;;;;110949;1250;34375;-43
2022/08/09 03:29:08;;;;;;;5.00;3.20;;;;;;;;;;110902;1241;35419;-42
2022/08/09 03:31:39;;;;;;;6.30;3.50;;;;;;;;;;110895;1244;34941;-42
2022/08/09 03:34:11;;;;;;;6.70;3.50;;;;;;;;;;110951;1249;34979;-42
2022/08/09 03:36:41;;;;;;;6.40;3.30;;;;;;;;;;110944;1250;34648;-42
2022/08/09 03:39:13;;;;;;;7.20;3.20;;;;;;;;;;110928;1248;35033;-43
2022/08/09 03:41:44;;;;;;;5.30;3.30;;;;;;;;;;110906;1243;34931;-43
2022/08/09 03:44:14;;;;;;;8.70;3.10;;;;;;;;;;110946;1244;35661;-42
2022/08/09 03:46:45;;;;;;;5.30;3.00;;;;;;;;;;110941;1241;34250;-42
2022/08/09 03:49:17;;;;;;;5.40;3.00;;;;;;;;;;110925;1249;33802;-42
2022/08/09 03:51:52;;;;;;;5.90;3.30;;;;;;;;;;110942;1248;33741;-44
2022/08/09 03:54:25;;;;;;;5.10;3.10;;;;;;;;;;110933;1247;33800;-41
2022/08/09 03:56:56;;;;;;;5.50;3.20;;;;;;;;;;110918;1249;34390;-43
2022/08/09 03:59:27;;;;;;;6.00;3.00;;;;;;;;;;110939;1244;34982;-43
2022/08/09 04:01:59;;;;;;;5.60;3.00;;;;;;;;;;110906;1250;34527;-43
2022/08/09 04:04:31;;;;;;;6.10;3.20;;;;;;;;;;110940;1250;34307;-43
2022/08/09 04:07:02;;;;;;;5.90;3.50;;;;;;;;;;110934;1241;33256;-43
2022/08/09 04:09:33;;;;;;;5.70;3.30;;;;;;;;;;110930;1240;33732;-42
2022/08/09 04:12:23;;;;;;;5.20;3.10;;;;;;;;;;110953;1248;35027;-42
2022/08/09 04:14:56;;;;;;;5.60;3.30;;;;;;;;;;110926;1241;34961;-42
2022/08/09 04:17:29;;;;;;;7.80;3.50;;;;;;;;;;110942;1249;33505;-42
2022/08/09 04:20:00;;;;;;;4.80;3.20;;;;;;;;;;110929;1249;34919;-43
2022/08/09 04:22:31;;;;;;;6.00;3.40;;;;;;;;;;110945;1247;33781;-42
2022/08/09 04:25:02;;;;;;;6.60;3.40;;;;;;;;;;110955;1248;33438;-43
2022/08/09 04:27:34;;;;;;;6.70;3.20;;;;;;;;;;110892;1249;33298;-41
2022/08/09 04:30:07;;;;;;;5.90;3.50;;;;;;;;;;110933;1241;35130;-42
2022/08/09 04:32:44;;;;;;;7.00;3.70;;;;;;;;;;110965;1250;34922;-41
2022/08/09 04:35:15;;;;;;;7.00;3.30;;;;;;;;;;110926;1249;34309;-44
2022/08/09 04:37:46;;;;;;;5.90;3.40;;;;;;;;;;110885;1244;35545;-43
2022/08/09 04:40:18;;;;;;;6.70;4.50;;;;;;;;;;110919;1240;34963;-41
2022/08/09 04:42:51;;;;;;;5.90;3.50;;;;;;;;;;110933;1240;33017;-43
2022/08/09 04:45:25;;;;;;;8.00;4.10;;;;;;;;;;110915;1244;34160;-43
2022/08/09 04:47:58;;;;;;;6.50;3.70;;;;;;;;;;110964;1241;33269;-42
2022/08/09 04:50:29;;;;;;;6.60;3.70;;;;;;;;;;110922;1250;33944;-42
2022/08/09 04:53:00;;;;;;;5.90;3.70;;;;;;;;;;110933;1243;35035;-44
2022/08/09 04:55:31;;;;;;;6.70;4.20;;;;;;;;;;110905;1250;35167;-42
2022/08/09 04:58:06;;;;;;;6.90;3.90;;;;;;;;;;110928;1241;34910;-44
2022/08/09 05:00:37;;;;;;;7.70;4.20;;;;;;;;;;110911;1242;35357;-42
2022/08/09 05:03:07;;;;;;;8.10;4.30;;;;;;;;;;110930;1241;35043;-42
2022/08/09 05:05:39;;;;;;;8.20;4.50;;;;;;;;;;110922;1249;35294;-41
2022/08/09 05:08:10;;;;;;;7.20;4.10;;;;;;;;;;110933;1249;33746;-43
2022/08/09 05:10:45;;;;;;;7.00;4.10;;;;;;;;;;110949;1245;34333;-42
2022/08/09 05:13:15;;;;;;;6.70;4.20;;;;;;;;;;110940;1248;33522;-43
2022/08/09 05:15:47;;;;;;;8.20;4.30;;;;;;;;;;110946;1249;35531;-42
2022/08/09 05:18:18;;;;;;;8.00;4.40;;;;;;;;;;110918;1249;35510;-43
2022/08/09 05:20:49;;;;;;;7.80;4.50;;;;;;;;;;110937;1242;33929;-44
2022/08/09 05:23:20;;;;;;;8.30;4.50;;;;;;;;;;110940;1243;33045;-42
2022/08/09 05:25:51;;;;;;;8.40;5.00;;;;;;;;;;110946;1241;33616;-42
2022/08/09 05:28:22;;;;;;;9.70;5.10;;;;;;;;;;110911;1249;33512;-42
2022/08/09 05:30:53;;;;;;;7.60;4.40;;;;;;;;;;110935;1240;35449;-43
2022/08/09 05:33:24;;;;;;;7.00;4.40;;;;;;;;;;110941;1250;34922;-45
2022/08/09 05:35:54;;;;;;;8.90;4.70;;;;;;;;;;110913;1249;34372;-42
2022/08/09 05:38:25;;;;;;;7.70;4.10;;;;;;;;;;110919;1249;33882;-46
2022/08/09 05:40:59;;;;;;;7.50;4.40;;;;;;;;;;110938;1249;34445;-43
2022/08/09 05:43:30;;;;;;;8.30;4.60;;;;;;;;;;110925;1249;35143;-43
2022/08/09 05:46:01;;;;;;;8.40;4.20;;;;;;;;;;110946;1249;33760;-43
2022/08/09 05:48:31;;;;;;;7.50;4.40;;;;;;;;;;110928;1244;34980;-40
2022/08/09 05:51:02;;;;;;;7.00;4.20;;;;;;;;;;110942;1249;34947;-41
2022/08/09 05:53:36;;;;;;;7.40;4.40;;;;;;;;;;110950;1241;35538;-44
2022/08/09 05:56:09;;;;;;;8.50;4.50;;;;;;;;;;110951;1242;33797;-42
2022/08/09 05:58:40;;;;;;;7.60;4.30;;;;;;;;;;110938;1241;34413;-43
2022/08/09 06:01:11;;;;;;;6.40;3.90;;;;;;;;;;110951;1243;35109;-42
2022/08/09 06:03:44;;;;;;;7.90;4.00;;;;;;;;;;110937;1241;34541;-43
2022/08/09 06:06:15;;;;;;;7.70;3.70;;;;;;;;;;110944;1241;33708;-43
2022/08/09 06:08:46;;;;;;;8.20;4.40;;;;;;;;;;110881;1249;33577;-41
2022/08/09 06:11:16;;;;;;;7.70;4.10;;;;;;;;;;110907;1249;35144;-41
2022/08/09 06:13:47;;;;;;;6.20;3.90;;;;;;;;;;110930;1241;33282;-44
2022/08/09 06:16:22;;;;;;;8.20;4.50;;;;;;;;;;110908;1249;33290;-43
2022/08/09 06:18:53;;;;;;;7.90;4.00;;;;;;;;;;110910;1249;34909;-42
2022/08/09 06:21:27;;;;;;;8.50;4.60;;;;;;;;;;110916;1249;33355;-42
2022/08/09 06:23:56;;;;;;;;;;;;;;;;;;110955;1241;34913;-43
2022/08/09 06:26:27;;;;;;;8.50;4.10;;;;;;;;;;110939;1248;33337;-41
2022/08/09 06:29:01;;;;;;;8.20;4.40;;;;;;;;;;110912;1249;34068;-42
2022/08/09 06:31:32;;;;;;;8.40;4.40;;;;;;;;;;110915;1241;33279;-42
2022/08/09 06:34:03;;;;;;;6.70;3.70;;;;;;;;;;110936;1249;34439;-42
2022/08/09 06:36:38;;;;;;;6.80;3.80;;;;;;;;;;110941;1249;34066;-42
2022/08/09 06:39:10;;;;;;;8.20;4.40;;;;;;;;;;110915;1245;34100;-43
2022/08/09 06:41:44;;;;;;;7.60;3.70;;;;;;;;;;110924;1244;33313;-42
2022/08/09 06:44:15;;;;;;;10.10;4.30;;;;;;;;;;110967;1250;33923;-44
2022/08/09 06:46:51;;;;;;;7.20;4.30;;;;;;;;;;110879;1250;33626;-42
2022/08/09 06:49:22;;;;;;;7.50;3.70;;;;;;;;;;110937;1249;34129;-42
2022/08/09 06:51:55;;;;;;;8.70;4.20;;;;;;;;;;110940;1249;35105;-42
2022/08/09 06:54:24;;;;;;;;;;;;;;;;;;110951;1244;34951;-42
2022/08/09 06:56:55;;;;;;;10.20;3.80;;;;;;;;;;110938;1249;34318;-44
2022/08/09 06:59:26;;;;;;;9.00;4.30;;;;;;;;;;110936;1249;34257;-42
2022/08/09 07:01:58;;;;;;;6.90;3.80;;;;;;;;;;110930;1249;34964;-42
2022/08/09 07:04:29;;;;;;;9.80;3.70;;;;;;;;;;110942;1243;34948;-41
2022/08/09 07:07:02;;;;;;;7.60;4.00;;;;;;;;;;110925;1249;35481;-43
2022/08/09 07:09:36;;;;;;;11.60;4.30;;;;;;;;;;110936;1243;34141;-43
2022/08/09 07:12:09;;;;;;;8.70;3.80;;;;;;;;;;110950;1240;33949;-41
2022/08/09 07:14:40;;;;;;;10.70;5.30;;;;;;;;;;110974;1241;34781;-41
2022/08/09 07:17:13;;;;;;;11.20;4.20;;;;;;;;;;110929;1248;35634;-45
2022/08/09 07:19:43;;;;;;;8.00;4.20;;;;;;;;;;110944;1244;33565;-42
2022/08/09 07:22:14;;;;;;;10.50;4.30;;;;;;;;;;110933;1246;33300;-42
2022/08/09 07:24:45;;;;;;;9.30;4.40;;;;;;;;;;110950;1241;34152;-42
2022/08/09 07:27:17;;;;;;;8.70;4.00;;;;;;;;;;110937;1248;34093;-46
2022/08/09 07:29:48;;;;;;;9.50;4.20;;;;;;;;;;110937;1243;35564;-42
2022/08/09 07:32:19;;;;;;;8.30;3.90;;;;;;;;;;110880;1241;33831;-41
2022/08/09 07:34:51;;;;;;;8.00;3.70;;;;;;;;;;110882;1250;35522;-46
2022/08/09 07:37:22;;;;;;;9.00;4.50;;;;;;;;;;110878;1249;35422;-46
2022/08/09 07:39:53;;;;;;;9.50;4.20;;;;;;;;;;110918;1249;35088;-48
2022/08/09 07:42:26;;;;;;;7.90;4.30;;;;;;;;;;110907;1243;35425;-47
2022/08/09 07:44:55;;;;;;;;;;;;;;;;;;110928;1243;33294;-49
2022/08/09 07:47:26;;;;;;;8.80;4.50;;;;;;;;;;110866;1242;35400;-47
2022/08/09 07:49:56;;;;;;;8.00;4.10;;;;;;;;;;110914;1249;35526;-48
2022/08/09 07:52:27;;;;;;;10.30;4.40;;;;;;;;;;110874;1241;34940;-46
2022/08/09 07:54:58;;;;;;;7.40;3.90;;;;;;;;;;110941;1248;35098;-45
2022/08/09 07:57:28;;;;;;;8.20;3.90;;;;;;;;;;110868;1249;35772;-46
2022/08/09 07:59:59;;;;;;;7.70;3.50;;;;;;;;;;110842;1249;34967;-40
2022/08/09 08:02:30;;;;;;;9.30;4.00;;;;;;;;;;110895;1242;35005;-41
2022/08/09 08:05:00;;;;;;;6.80;3.70;;;;;;;;;;110906;1247;35899;-41
2022/08/09 08:07:31;;;;;;;6.70;4.00;;;;;;;;;;110882;1250;35190;-47
2022/08/09 08:10:01;;;;;;;9.10;3.70;;;;;;;;;;110864;1241;34550;-42
2022/08/09 08:12:32;;;;;;;7.50;3.60;;;;;;;;;;110956;1241;33246;-41
2022/08/09 08:15:05;;;;;;;5.90;3.20;;;;;;;;;;110916;1248;35651;-47
2022/08/09 08:17:36;;;;;;;6.00;3.40;;;;;;;;;;110851;1248;34134;-47
2022/08/09 08:20:09;;;;;;;5.60;3.20;;;;;;;;;;110926;1241;33768;-47
2022/08/09 08:22:40;;;;;;;6.20;3.20;;;;;;;;;;110888;1243;35088;-44
2022/08/09 08:25:11;;;;;;;6.60;3.20;;;;;;;;;;110880;1241;34926;-40
2022/08/09 08:27:42;;;;;;;6.90;3.50;;;;;;;;;;110886;1240;33688;-47
2022/08/09 08:30:17;;;;;;;5.80;3.30;;;;;;;;;;110939;1248;33858;-41
2022/08/09 08:32:48;;;;;;;6.90;3.20;;;;;;;;;;110936;1241;34958;-42
2022/08/09 08:35:18;;;;;;;5.90;3.00;;;;;;;;;;110980;1241;34252;-41
2022/08/09 08:37:49;;;;;;;6.70;3.00;;;;;;;;;;110943;1248;35433;-43
2022/08/09 08:40:20;;;;;;;6.30;2.90;;;;;;;;;;110844;1249;34987;-46
2022/08/09 08:42:51;;;;;;;5.30;3.00;;;;;;;;;;110869;1248;35050;-41
2022/08/09 08:45:27;;;;;;;6.10;2.90;;;;;;;;;;110859;1241;31952;-41
2022/08/09 08:47:57;;;;;;;6.00;3.10;;;;;;;;;;110950;1243;35184;-49
2022/08/09 08:50:28;;;;;;;5.20;3.60;;;;;;;;;;110915;1248;34919;-41
2022/08/09 08:52:59;;;;;;;4.90;2.70;;;;;;;;;;110870;1248;35433;-42
2022/08/09 08:55:30;;;;;;;5.00;2.70;;;;;;;;;;110955;1248;35528;-41
2022/08/09 08:58:00;;;;;;;5.90;3.20;;;;;;;;;;110874;1248;35398;-40
2022/08/09 09:00:31;;;;;;;5.20;3.20;;;;;;;;;;110900;1241;35010;-41
2022/08/09 09:03:03;;;;;;;5.30;3.20;;;;;;;;;;110938;1244;34995;-43
2022/08/09 09:05:34;;;;;;;6.20;2.80;;;;;;;;;;110967;1248;35602;-41
2022/08/09 09:08:06;;;;;;;6.80;2.80;;;;;;;;;;110890;1248;35677;-44
2022/08/09 09:10:37;;;;;;;5.00;2.60;;;;;;;;;;110891;1241;33399;-43
2022/08/09 09:13:08;;;;;;;5.30;3.00;;;;;;;;;;110907;1242;35659;-42
2022/08/09 09:15:39;;;;;;;5.20;2.90;;;;;;;;;;110845;1248;34922;-46
2022/08/09 09:18:14;;;;;;;6.00;2.70;;;;;;;;;;110892;1248;33776;-40
2022/08/09 09:20:45;;;;;;;6.60;3.00;;;;;;;;;;110885;1241;35120;-42
2022/08/09 09:23:16;;;;;;;5.70;2.90;;;;;;;;;;110833;1245;34294;-42
2022/08/09 09:25:47;;;;;;;4.90;3.10;;;;;;;;;;110972;1241;34402;-42
2022/08/09 09:28:19;;;;;;;5.00;3.20;;;;;;;;;;110928;1241;34941;-41
2022/08/09 09:30:57;;;;;;;6.40;3.20;;;;;;;;;;110465;1248;507619;-44
2022/08/09 09:33:34;;;;;;;6.30;3.10;;;;;;;;;;110866;1248;33282;-45
2022/08/09 09:36:06;;;;;;;6.40;3.10;;;;;;;;;;110845;1244;35546;-41
2022/08/09 09:38:46;;;;;;;7.10;3.30;;;;;;;;;;110951;1241;34433;-43
2022/08/09 09:41:34;;;;;;;6.40;3.40;;;;;;;;;;110949;1241;33705;-41
2022/08/09 09:44:06;;;;;;;5.40;3.20;;;;;;;;;;110805;1249;34973;-45
2022/08/09 09:46:38;;;;;;;5.10;2.90;;;;;;;;;;110870;1249;35063;-44
2022/08/09 09:49:10;;;;;;;5.40;3.10;;;;;;;;;;110955;1241;35182;-43
2022/08/09 09:51:41;;;;;;;5.30;2.90;;;;;;;;;;110809;1241;33268;-41
2022/08/09 09:54:14;;;;;;;5.60;2.90;;;;;;;;;;110949;1241;35628;-41
2022/08/09 09:56:46;;;;;;;5.50;2.90;;;;;;;;;;110947;1247;35007;-42
2022/08/09 09:59:21;;;;;;;7.20;2.90;;;;;;;;;;110898;1247;35625;-45
2022/08/09 10:02:00;;;;;;;4.60;2.60;;;;;;;;;;110932;1248;32589;-45
2022/08/09 10:04:30;;;;;;;5.10;2.60;;;;;;;;;;110875;1244;33265;-46
2022/08/09 10:07:01;;;;;;;4.80;2.50;;;;;;;;;;110954;1241;34928;-42
2022/08/09 10:09:48;;;;;;;4.80;2.60;;;;;;;;;;110949;1248;34961;-42
2022/08/09 10:12:28;;;;;;;4.20;2.70;;;;;;;;;;110881;1248;34597;-40
2022/08/09 10:15:12;;;;;;;4.90;2.70;;;;;;;;;;110883;1241;33315;-44
2022/08/09 10:17:45;;;;;;;4.40;2.80;;;;;;;;;;110972;1241;33428;-42
2022/08/09 10:20:26;;;;;;;4.50;2.40;;;;;;;;;;110817;1248;34886;-39
2022/08/09 10:22:59;;;;;;;4.40;2.50;;;;;;;;;;110907;1248;35067;-41
2022/08/09 10:25:29;;;;;;;4.50;2.50;;;;;;;;;;110851;1249;35053;-41
2022/08/09 10:28:00;;;;;;;5.30;2.60;;;;;;;;;;110862;1243;35187;-41
2022/08/09 10:30:31;;;;;;;5.10;2.60;;;;;;;;;;110947;1241;33330;-42
2022/08/09 10:33:03;;;;;;;4.10;2.30;;;;;;;;;;110904;1248;35186;-42
2022/08/09 10:35:34;;;;;;;4.50;2.60;;;;;;;;;;111026;1248;35502;-41
2022/08/09 10:38:05;;;;;;;4.90;2.30;;;;;;;;;;110954;1248;34346;-40
2022/08/09 10:40:37;;;;;;;4.70;2.70;;;;;;;;;;110866;1248;35115;-41
2022/08/09 10:43:08;;;;;;;7.10;2.80;;;;;;;;;;110925;1241;34973;-39
2022/08/09 10:45:41;;;;;;;5.70;2.60;;;;;;;;;;110914;1241;35056;-42
2022/08/09 10:48:15;;;;;;;7.00;2.50;;;;;;;;;;110921;1248;35043;-39
2022/08/09 10:51:11;;;;;;;6.00;2.50;;;;;;;;;;110898;1247;34954;-38
2022/08/09 10:53:50;;;;;;;6.40;2.80;;;;;;;;;;110837;1241;34973;-36
2022/08/09 10:56:23;;;;;;;4.70;2.50;;;;;;;;;;110946;1242;34420;-37
2022/08/09 10:58:54;;;;;;;5.60;2.70;;;;;;;;;;110940;1249;35524;-36
2022/08/09 11:01:41;;;;;;;4.20;2.40;;;;;;;;;;110971;1248;33313;-38
2022/08/09 11:04:22;;;;;;;4.30;2.50;;;;;;;;;;110812;1249;34958;-33
2022/08/09 11:07:29;;;;;;;5.60;2.70;;;;;;;;;;110965;1248;34950;-40
2022/08/09 11:09:59;;;;;;;5.50;2.80;;;;;;;;;;110809;1248;35101;-39
2022/08/09 11:12:30;;;;;;;5.60;2.50;;;;;;;;;;110876;1242;33894;-41
2022/08/09 11:15:20;;;;;;;5.70;2.80;;;;;;;;;;110895;1248;34934;-46
2022/08/09 11:17:54;;;;;;;5.80;2.50;;;;;;;;;;110874;1248;34384;-40
2022/08/09 11:20:44;;;;;;;5.00;2.50;;;;;;;;;;110902;1242;33425;-40
2022/08/09 11:23:16;;;;;;;5.70;2.90;;;;;;;;;;110846;1241;35024;-40
2022/08/09 11:25:48;;;;;;;6.60;2.50;;;;;;;;;;110737;1241;34320;-42
2022/08/09 11:28:40;;;;;;;5.40;2.60;;;;;;;;;;110916;1248;33403;-39
2022/08/09 11:31:46;;;;;;;7.00;3.40;;;;;;;;;;110870;1248;35011;-38
2022/08/09 11:34:25;;;;;;;5.70;3.00;;;;;;;;;;110846;1241;34983;-40
2022/08/09 11:36:55;;;;;;;5.20;2.60;;;;;;;;;;110930;1248;35086;-39
2022/08/09 11:39:26;;;;;;;6.90;3.10;;;;;;;;;;110958;1244;35065;-39
2022/08/09 11:41:59;;;;;;;5.50;2.60;;;;;;;;;;110941;1249;35197;-46
2022/08/09 11:44:48;;;;;;;7.50;2.50;;;;;;;;;;110931;1248;34976;-37
2022/08/09 11:47:19;;;;;;;7.70;3.00;;;;;;;;;;110946;1248;35023;-41
2022/08/09 11:50:04;;;;;;;6.80;3.10;;;;;;;;;;110934;1248;35672;-42
2022/08/09 11:52:54;;;;;;;6.00;3.10;;;;;;;;;;110875;1248;35508;-37
2022/08/09 11:55:38;;;;;;;7.80;3.00;;;;;;;;;;110801;1248;33880;-44
2022/08/09 11:58:47;;;;;;;7.20;2.90;;;;;;;;;;111065;1248;30500;-42
2022/08/09 12:01:20;;;;;;;6.30;3.10;;;;;;;;;;110881;1248;35171;-37
2022/08/09 12:03:58;;;;;;;7.20;3.00;;;;;;;;;;110916;1248;34966;-40
2022/08/09 12:06:29;;;;;;;6.80;3.10;;;;;;;;;;110868;1249;35356;-43
2022/08/09 12:09:01;;;;;;;6.90;3.00;;;;;;;;;;110878;1248;35030;-42
2022/08/09 12:11:31;;;;;;;6.50;2.80;;;;;;;;;;110915;1248;34922;-42
2022/08/09 12:14:06;;;;;;;11.70;3.10;;;;;;;;;;110794;1248;34933;-40
2022/08/09 12:16:39;;;;;;;6.20;3.00;;;;;;;;;;110926;1248;35517;-40
2022/08/09 12:19:11;;;;;;;6.00;2.90;;;;;;;;;;110795;1241;35536;-41
2022/08/09 12:21:42;;;;;;;;;;;;;;;;;;110912;1248;34271;-40
2022/08/09 12:24:19;;;;;;;5.70;2.80;;;;;;;;;;110916;1248;35244;-40
2022/08/09 12:26:50;;;;;;;6.30;2.40;;;;;;;;;;110859;1248;35222;-39
2022/08/09 12:29:23;;;;;;;6.40;2.80;;;;;;;;;;110892;1242;35017;-41
2022/08/09 12:32:04;;;;;;;5.10;2.50;;;;;;;;;;110937;1241;34447;-42
2022/08/09 12:34:36;;;;;;;5.00;2.40;;;;;;;;;;110835;1248;34961;-40
2022/08/09 12:37:08;;;;;;;5.80;2.50;;;;;;;;;;110876;1248;34413;-41
2022/08/09 12:39:39;;;;;;;5.00;2.90;;;;;;;;;;110914;1248;35653;-41
2022/08/09 12:42:13;;;;;;;6.30;2.80;;;;;;;;;;110941;1241;34872;-40
2022/08/09 12:44:44;;;;;;;4.90;2.70;;;;;;;;;;110976;1248;35078;-41
2022/08/09 12:47:16;;;;;;;6.60;2.70;;;;;;;;;;110922;1248;34966;-41
2022/08/09 12:50:16;;;;;;;4.60;2.20;;;;;;;;;;110923;1249;34303;-41
2022/08/09 12:52:42;;;;;;;6.10;2.70;;;;;;;;;;110941;1241;35017;-41
2022/08/09 12:55:23;;;;;;;7.00;3.00;;;;;;;;;;110967;1241;35503;-42
2022/08/09 12:57:53;;;;;;;5.70;2.40;;;;;;;;;;110936;1249;34912;-43
2022/08/09 13:00:28;;;;;;;5.90;2.70;;;;;;;;;;110910;1248;35336;-39
2022/08/09 13:03:03;;;;;;;4.30;2.50;;;;;;;;;;110883;1248;35013;-41
2022/08/09 13:05:44;;;;;;;4.40;2.30;;;;;;;;;;110790;1241;35516;-39
2022/08/09 13:08:17;;;;;;;5.30;2.50;;;;;;;;;;110909;1241;33562;-42
2022/08/09 13:10:49;;;;;;;5.60;2.60;;;;;;;;;;110876;1241;34964;-42
2022/08/09 13:13:30;;;;;;;4.90;2.60;;;;;;;;;;110942;1248;34997;-40
2022/08/09 13:16:02;;;;;;;5.10;2.50;;;;;;;;;;110821;1242;36089;-41
2022/08/09 13:18:45;;;;;;;5.30;2.30;;;;;;;;;;110852;1241;35603;-40
2022/08/09 13:21:25;;;;;;;4.90;2.30;;;;;;;;;;110890;1244;33320;-39
2022/08/09 13:24:03;;;;;;;5.60;2.80;;;;;;;;;;110974;1248;33269;-40
2022/08/09 13:26:35;;;;;;;5.40;2.50;;;;;;;;;;110914;1249;34948;-39
2022/08/09 13:29:11;;;;;;;6.40;3.10;;;;;;;;;;110853;1248;35066;-38
2022/08/09 13:31:59;;;;;;;6.30;2.90;;;;;;;;;;110911;1242;35490;-40
2022/08/09 13:34:31;;;;;;;5.10;2.50;;;;;;;;;;110806;1242;34928;-39
2022/08/09 13:37:03;;;;;;;5.50;2.80;;;;;;;;;;110811;1248;34951;-39
2022/08/09 13:39:36;;;;;;;5.80;2.70;;;;;;;;;;110934;1248;34266;-39
2022/08/09 13:42:08;;;;;;;5.20;2.70;;;;;;;;;;110793;1248;34922;-40
2022/08/09 13:44:39;;;;;;;5.50;2.50;;;;;;;;;;110856;1241;35648;-40
2022/08/09 13:47:11;;;;;;;5.60;2.60;;;;;;;;;;110891;1248;34905;-39
2022/08/09 13:49:42;;;;;;;5.80;2.70;;;;;;;;;;110744;1241;33268;-40
2022/08/09 13:52:12;;;;;;;7.40;3.10;;;;;;;;;;110757;1248;35036;-37
2022/08/09 13:54:43;;;;;;;4.50;2.50;;;;;;;;;;110925;1248;34352;-38
2022/08/09 13:57:14;;;;;;;6.10;2.80;;;;;;;;;;110892;1249;35053;-40
2022/08/09 13:59:44;;;;;;;5.50;2.60;;;;;;;;;;110892;1241;35018;-38
2022/08/09 14:02:14;;;;;;;5.00;2.80;;;;;;;;;;110801;1241;34919;-38
2022/08/09 14:04:45;;;;;;;5.10;2.90;;;;;;;;;;110833;1248;34307;-38
2022/08/09 14:07:15;;;;;;;6.30;3.00;;;;;;;;;;110801;1248;35025;-39
2022/08/09 14:09:46;;;;;;;5.40;2.90;;;;;;;;;;110736;1248;35604;-37
2022/08/09 14:12:16;;;;;;;5.70;2.90;;;;;;;;;;110784;1241;35012;-37
2022/08/09 14:14:47;;;;;;;6.10;2.70;;;;;;;;;;110887;1248;34925;-37
2022/08/09 14:17:18;;;;;;;5.40;2.80;;;;;;;;;;110873;1249;35504;-37
2022/08/09 14:19:48;;;;;;;5.00;2.60;;;;;;;;;;110911;1248;35158;-38
2022/08/09 14:22:19;;;;;;;5.80;3.00;;;;;;;;;;110920;1248;33457;-37
2022/08/09 14:24:49;;;;;;;6.10;2.90;;;;;;;;;;110761;1241;35064;-39
2022/08/09 14:27:20;;;;;;;4.90;3.10;;;;;;;;;;110804;1248;34368;-38
2022/08/09 14:29:50;;;;;;;6.00;2.90;;;;;;;;;;110730;1248;35558;-38
2022/08/09 14:32:21;;;;;;;6.00;2.80;;;;;;;;;;110786;1241;34343;-39
2022/08/09 14:34:51;;;;;;;5.90;3.10;;;;;;;;;;110814;1248;35524;-42
2022/08/09 14:37:22;;;;;;;6.40;3.00;;;;;;;;;;110911;1248;35539;-41
2022/08/09 14:39:52;;;;;;;5.70;3.10;;;;;;;;;;110794;1247;34314;-42
2022/08/09 14:42:23;;;;;;;5.20;2.80;;;;;;;;;;110851;1248;35435;-38
2022/08/09 14:44:53;;;;;;;5.00;2.80;;;;;;;;;;110928;1249;35025;-38
2022/08/09 14:47:24;;;;;;;5.40;2.70;;;;;;;;;;110902;1241;35919;-39
2022/08/09 14:49:55;;;;;;;4.80;2.90;;;;;;;;;;110787;1242;34931;-38
2022/08/09 14:52:25;;;;;;;4.90;3.20;;;;;;;;;;110921;1248;36771;-40
2022/08/09 14:54:56;;;;;;;6.00;2.90;;;;;;;;;;110827;1248;35068;-41
2022/08/09 14:57:26;;;;;;;5.50;3.10;;;;;;;;;;110849;1248;35513;-39
2022/08/09 14:59:57;;;;;;;4.80;2.70;;;;;;;;;;110818;1250;35123;-40
2022/08/09 15:02:27;;;;;;;5.50;3.00;;;;;;;;;;110927;1248;33453;-39
2022/08/09 15:04:57;;;;;;;4.90;3.00;;;;;;;;;;110852;1242;35017;-37
2022/08/09 15:07:28;;;;;;;5.90;3.00;;;;;;;;;;110928;1248;35001;-45
2022/08/09 15:09:58;;;;;;;5.30;3.50;;;;;;;;;;110804;1244;35182;-42